Urb El Duque, Puerto Rico
Current Conditions -  °F | °C
As of 11:53 AM on Wednesday 28 Jan 2015 (Local Time) from TJNR Reporting Station
Scattered Clouds Scattered Clouds  
Wind Chill: 84°   Ceiling: Unl
Heat Index: 89°   Visibility: 10mi
Dew Point: 71°   Wind: 12mph
Humidity: 65%   Direction: 160°SSE
Pressure: 30.05"   Gusts: NA
Location:  18.2147°N, 65.7358°W
Report Text: TJNR 281553Z AUTO 16010KT 10SM SCT070 29/22 A3005 RMK AO2 SLP175 T02890217
Loading
Personal Weather Stations






























Interactive Weather Map New forecast layout! Learn more

10-Day Weather Forecast

Advertisements
Track Severe Weather on mobile